Time;durP1;ratioP1;P1;durP2;ratioP2;P2;SDS_P1;SDS_P2;PMS_P1;PMS_P2;Temp;Humidity;BMP_temperature;BMP_pressure;BME280_temperature;BME280_humidity;BME280_pressure;Samples;Min_cycle;Max_cycle;Signal;HPM_P1;HPM_P2
2023/12/19 00:00:08;;;;;;;1.80;0.97;;;;;;;4.74;100.00;100326.94;5109393;28;20201;-62
2023/12/19 00:02:35;;;;;;;1.00;0.90;;;;;;;4.69;100.00;100330.47;5109543;28;20193;-62
2023/12/19 00:05:01;;;;;;;1.53;1.10;;;;;;;4.68;100.00;100319.53;5109421;28;20197;-62
2023/12/19 00:07:29;;;;;;;0.90;0.77;;;;;;;4.64;100.00;100323.00;5109500;28;20600;-62
2023/12/19 00:09:56;;;;;;;1.20;0.93;;;;;;;4.65;100.00;100322.13;5108904;28;20260;-62
2023/12/19 00:12:22;;;;;;;0.87;0.87;;;;;;;4.68;100.00;100319.53;5109734;28;20205;-62
2023/12/19 00:14:49;;;;;;;0.70;0.67;;;;;;;4.66;100.00;100316.19;5109445;28;20208;-62
2023/12/19 00:17:18;;;;;;;1.03;0.93;;;;;;;4.65;100.00;100313.69;5109432;28;20204;-62
2023/12/19 00:19:44;;;;;;;0.50;0.50;;;;;;;4.60;100.00;100313.00;5109434;28;20216;-62
2023/12/19 00:22:11;;;;;;;0.60;0.60;;;;;;;4.51;100.00;100316.63;5109617;28;20201;-62
2023/12/19 00:24:39;;;;;;;3.07;0.93;;;;;;;4.45;100.00;100319.31;5109167;28;20209;-62
2023/12/19 00:27:06;;;;;;;0.67;0.67;;;;;;;4.44;100.00;100313.41;5109295;28;20197;-62
2023/12/19 00:29:33;;;;;;;1.30;1.20;;;;;;;4.47;100.00;100315.03;5108992;28;20228;-62
2023/12/19 00:31:59;;;;;;;0.70;0.70;;;;;;;4.48;100.00;100312.47;5109007;28;20701;-62
2023/12/19 00:34:28;;;;;;;0.83;0.77;;;;;;;4.48;100.00;100320.06;5109013;28;20204;-62
2023/12/19 00:36:54;;;;;;;1.40;0.83;;;;;;;4.50;100.00;100318.31;5109084;28;20591;-62
2023/12/19 00:39:21;;;;;;;1.53;0.90;;;;;;;4.39;100.00;100320.28;5109010;28;20205;-62
2023/12/19 00:41:48;;;;;;;0.57;0.53;;;;;;;4.32;100.00;100322.16;5108800;28;20208;-62
2023/12/19 00:44:15;;;;;;;1.07;0.97;;;;;;;4.25;100.00;100325.75;5109122;28;20212;-62
2023/12/19 00:46:43;;;;;;;1.10;1.00;;;;;;;4.16;100.00;100320.94;5109254;28;20205;-62
2023/12/19 00:49:10;;;;;;;1.43;0.83;;;;;;;4.13;100.00;100323.53;5109105;28;20328;-62
2023/12/19 00:51:38;;;;;;;0.97;0.70;;;;;;;4.18;100.00;100318.34;5108791;28;20692;-62
2023/12/19 00:54:05;;;;;;;0.97;0.97;;;;;;;4.21;100.00;100324.16;5109079;28;20194;-62
2023/12/19 00:56:32;;;;;;;1.33;0.70;;;;;;;4.23;100.00;100322.41;5108786;28;20412;-63
2023/12/19 00:58:59;;;;;;;4.47;1.00;;;;;;;4.17;100.00;100326.81;5109144;28;20197;-63
2023/12/19 01:01:26;;;;;;;0.70;0.70;;;;;;;4.10;100.00;100316.00;5108784;28;20233;-62
2023/12/19 01:03:53;;;;;;;1.70;1.03;;;;;;;4.03;100.00;100310.28;5108806;28;20210;-63
2023/12/19 01:06:20;;;;;;;0.80;0.57;;;;;;;4.09;100.00;100309.28;5108929;28;20228;-63
2023/12/19 01:08:48;;;;;;;0.30;0.30;;;;;;;4.11;100.00;100307.56;5108910;28;20254;-62
2023/12/19 01:11:15;;;;;;;0.53;0.53;;;;;;;4.22;100.00;100300.53;5108491;28;20767;-62
2023/12/19 01:13:42;;;;;;;2.03;1.30;;;;;;;4.20;100.00;100297.19;5108520;28;20220;-62
2023/12/19 01:16:09;;;;;;;1.33;0.80;;;;;;;4.24;100.00;100293.69;5108551;28;20209;-63
2023/12/19 01:18:35;;;;;;;0.80;0.80;;;;;;;4.27;100.00;100288.53;5108588;28;20254;-62
2023/12/19 01:21:02;;;;;;;2.23;0.43;;;;;;;4.25;100.00;100289.47;5108657;28;20197;-62
2023/12/19 01:23:29;;;;;;;0.50;0.50;;;;;;;4.23;100.00;100281.09;5112651;28;20205;-62
2023/12/19 01:25:57;;;;;;;0.67;0.67;;;;;;;4.20;100.00;100276.94;5112767;28;20201;-62
2023/12/19 01:28:24;;;;;;;1.20;0.93;;;;;;;4.17;100.00;100282.09;5112791;28;20197;-62
2023/12/19 01:30:51;;;;;;;1.17;1.00;;;;;;;4.18;100.00;100288.78;5112654;28;20235;-62
2023/12/19 01:33:16;;;;;;;0.80;0.80;;;;;;;4.22;100.00;100289.56;5112823;28;20193;-62
2023/12/19 01:35:43;;;;;;;1.17;0.87;;;;;;;4.21;100.00;100292.94;5112435;28;20205;-62
2023/12/19 01:38:10;;;;;;;0.50;0.50;;;;;;;4.19;100.00;100289.63;5112657;28;20198;-62
2023/12/19 01:40:37;;;;;;;0.87;0.80;;;;;;;4.21;100.00;100292.94;5112241;28;20201;-62
2023/12/19 01:43:17;;;;;;;0.80;0.60;;;;;;;4.22;100.00;100292.94;5112242;28;20198;-62
2023/12/19 01:45:44;;;;;;;0.70;0.70;;;;;;;4.19;100.00;100285.41;5112282;28;20729;-62
2023/12/19 01:48:11;;;;;;;1.97;1.00;;;;;;;4.19;100.00;100284.56;5112799;28;20193;-62
2023/12/19 01:50:38;;;;;;;0.70;0.70;;;;;;;4.13;100.00;100280.53;5112311;28;20236;-62
2023/12/19 01:53:05;;;;;;;0.77;0.77;;;;;;;4.15;100.00;100286.34;5112147;28;20228;-62
2023/12/19 01:55:32;;;;;;;0.63;0.63;;;;;;;4.08;100.00;100283.16;5112067;28;20209;-62
2023/12/19 01:58:00;;;;;;;0.73;0.73;;;;;;;4.09;100.00;100289.03;5112152;28;20197;-62
2023/12/19 02:00:28;;;;;;;0.20;0.20;;;;;;;4.07;100.00;100291.63;5110580;28;20693;-62
2023/12/19 02:02:55;;;;;;;0.43;0.40;;;;;;;4.08;100.00;100282.34;5110790;28;20202;-62
2023/12/19 02:05:22;;;;;;;1.83;0.60;;;;;;;4.09;100.00;100284.81;5111781;28;20216;-62
2023/12/19 02:07:49;;;;;;;1.07;0.77;;;;;;;4.00;100.00;100279.16;5112003;28;20197;-62
2023/12/19 02:10:16;;;;;;;1.00;0.73;;;;;;;3.90;100.00;100272.66;5112077;28;20233;-62
2023/12/19 02:12:44;;;;;;;0.60;0.60;;;;;;;3.91;100.00;100270.13;5111764;28;20202;-62
2023/12/19 02:15:11;;;;;;;0.70;0.70;;;;;;;3.88;100.00;100265.13;5112047;28;20197;-62
2023/12/19 02:17:40;;;;;;;1.30;0.70;;;;;;;3.79;100.00;100253.56;5111796;28;20204;-62
2023/12/19 02:20:08;;;;;;;0.97;0.83;;;;;;;3.83;100.00;100256.81;5111607;28;20198;-62
2023/12/19 02:22:35;;;;;;;0.60;0.60;;;;;;;3.84;100.00;100249.22;5111621;27;20590;-62
2023/12/19 02:25:03;;;;;;;1.03;0.73;;;;;;;3.89;100.00;100250.78;5111498;28;20232;-62
2023/12/19 02:27:31;;;;;;;0.70;0.60;;;;;;;3.87;100.00;100258.44;5111749;28;20667;-62
2023/12/19 02:29:57;;;;;;;0.93;0.70;;;;;;;3.89;100.00;100256.66;5111902;28;20229;-62
2023/12/19 02:32:24;;;;;;;3.50;0.87;;;;;;;3.89;100.00;100251.59;5111539;28;20201;-62
2023/12/19 02:34:51;;;;;;;0.77;0.70;;;;;;;3.87;100.00;100258.44;5110737;28;20197;-62
2023/12/19 02:37:18;;;;;;;1.57;0.60;;;;;;;3.84;100.00;100261.88;5111247;28;20323;-62
2023/12/19 02:39:45;;;;;;;0.40;0.40;;;;;;;3.79;100.00;100256.09;5111151;28;20367;-62
2023/12/19 02:42:13;;;;;;;0.50;0.50;;;;;;;3.90;100.00;100258.34;5111197;28;20209;-62
2023/12/19 02:44:39;;;;;;;0.63;0.53;;;;;;;3.87;100.00;100260.97;5111241;28;20194;-62
2023/12/19 02:47:06;;;;;;;0.57;0.57;;;;;;;3.92;100.00;100260.81;5111386;28;20220;-62
2023/12/19 02:49:33;;;;;;;0.37;0.37;;;;;;;3.94;100.00;100259.09;5110869;28;20212;-62
2023/12/19 02:52:00;;;;;;;1.30;1.20;;;;;;;3.97;100.00;100264.06;5110957;28;20601;-62
2023/12/19 02:54:27;;;;;;;0.67;0.53;;;;;;;3.91;100.00;100264.22;5110849;28;20203;-62
2023/12/19 02:56:54;;;;;;;0.50;0.50;;;;;;;3.95;100.00;100263.28;5111028;28;20205;-62
2023/12/19 02:59:22;;;;;;;0.70;0.67;;;;;;;3.92;100.00;100264.19;5111144;28;20205;-62
2023/12/19 03:01:49;;;;;;;1.03;0.93;;;;;;;3.93;100.00;100262.50;5111106;28;20689;-62
2023/12/19 03:04:15;;;;;;;1.20;0.80;;;;;;;3.81;100.00;100261.94;5110635;28;20205;-62
2023/12/19 03:06:42;;;;;;;0.80;0.80;;;;;;;3.86;100.00;100257.56;5110944;28;20205;-62
2023/12/19 03:09:09;;;;;;;0.47;0.40;;;;;;;3.86;100.00;100257.56;5110945;28;20208;-62
2023/12/19 03:11:38;;;;;;;0.70;0.70;;;;;;;3.88;100.00;100259.25;5110509;28;20220;-62
2023/12/19 03:14:05;;;;;;;1.87;1.00;;;;;;;3.83;100.00;100250.06;5110511;28;20206;-62
2023/12/19 03:16:33;;;;;;;0.57;0.57;;;;;;;3.82;100.00;100250.94;5110740;28;20193;-62
2023/12/19 03:19:00;;;;;;;1.13;0.57;;;;;;;3.80;100.00;100246.78;5110472;28;20197;-62
2023/12/19 03:21:27;;;;;;;0.80;0.70;;;;;;;3.71;100.00;100247.03;5110473;28;20197;-62
2023/12/19 03:23:53;;;;;;;0.80;0.80;;;;;;;3.72;100.00;100246.16;5110345;28;20690;-62
2023/12/19 03:26:20;;;;;;;1.30;1.10;;;;;;;3.69;100.00;100249.59;5110541;28;20201;-62
2023/12/19 03:28:47;;;;;;;0.63;0.63;;;;;;;3.62;100.00;100248.09;5110382;28;20201;-62
2023/12/19 03:31:14;;;;;;;0.87;0.50;;;;;;;3.61;100.00;100246.44;5110194;28;20245;-62
2023/12/19 03:33:42;;;;;;;0.80;0.80;;;;;;;3.61;100.00;100234.63;5110005;28;20202;-62
2023/12/19 03:36:09;;;;;;;0.83;0.73;;;;;;;3.64;100.00;100241.31;5110372;28;20194;-62
2023/12/19 03:38:36;;;;;;;1.20;0.73;;;;;;;3.61;100.00;100233.81;5110233;28;20227;-64
2023/12/19 03:41:02;;;;;;;0.40;0.40;;;;;;;3.63;100.00;100232.03;5110036;28;20290;-63
2023/12/19 03:43:29;;;;;;;0.73;0.43;;;;;;;3.59;100.00;100233.00;5109346;28;20208;-63
2023/12/19 03:46:01;;;;;;;0.60;0.47;;;;;;;3.62;100.00;100238.81;5108973;28;20201;-63
2023/12/19 03:48:27;;;;;;;0.40;0.40;;;;;;;3.60;100.00;100240.53;5109159;28;20212;-63
2023/12/19 03:50:56;;;;;;;0.63;0.63;;;;;;;3.56;100.00;100238.13;5110114;28;20670;-63
2023/12/19 03:53:23;;;;;;;0.73;0.63;;;;;;;3.54;100.00;100237.34;5109864;28;20197;-62
2023/12/19 03:55:50;;;;;;;0.77;0.73;;;;;;;3.57;100.00;100244.84;5109866;28;20193;-63
2023/12/19 03:58:16;;;;;;;0.40;0.40;;;;;;;3.54;100.00;100239.84;5109948;28;20197;-62
2023/12/19 04:00:43;;;;;;;0.40;0.40;;;;;;;3.54;100.00;100242.38;5109508;28;20205;-63
2023/12/19 04:03:10;;;;;;;0.70;0.70;;;;;;;3.59;100.00;100240.59;5109886;28;20204;-63
2023/12/19 04:05:37;;;;;;;0.67;0.50;;;;;;;3.58;100.00;100241.47;5109494;28;20205;-63
2023/12/19 04:08:06;;;;;;;0.40;0.40;;;;;;;3.53;100.00;100239.03;5109722;28;20197;-63
2023/12/19 04:10:33;;;;;;;1.00;0.90;;;;;;;3.46;100.00;100237.53;5109576;28;20322;-63
2023/12/19 04:13:00;;;;;;;1.27;0.73;;;;;;;3.51;100.00;100234.88;5109258;28;20593;-63
2023/12/19 04:15:26;;;;;;;0.87;0.60;;;;;;;3.56;100.00;100233.91;5109835;28;20201;-63
2023/12/19 04:17:53;;;;;;;0.93;0.50;;;;;;;3.58;100.00;100231.34;5109538;28;20198;-62
2023/12/19 04:20:20;;;;;;;1.20;0.80;;;;;;;3.55;100.00;100237.31;5109326;28;20201;-62
2023/12/19 04:22:47;;;;;;;1.27;1.17;;;;;;;3.52;100.00;100232.34;5109411;28;20224;-62
2023/12/19 04:25:15;;;;;;;0.60;0.60;;;;;;;3.52;100.00;100232.34;5109295;28;20202;-63
2023/12/19 04:27:42;;;;;;;0.60;0.43;;;;;;;3.51;100.00;100239.94;5109182;28;20208;-63
2023/12/19 04:30:09;;;;;;;0.73;0.60;;;;;;;3.49;100.00;100247.56;5109196;28;20201;-63
2023/12/19 04:32:36;;;;;;;0.60;0.60;;;;;;;3.43;100.00;100239.28;5109032;28;20224;-63
2023/12/19 04:35:04;;;;;;;0.40;0.40;;;;;;;3.38;100.00;100245.31;5108971;28;20193;-63
2023/12/19 04:37:30;;;;;;;0.43;0.43;;;;;;;3.46;100.00;100241.75;5108895;28;20208;-63
2023/12/19 04:39:58;;;;;;;0.60;0.60;;;;;;;3.47;100.00;100251.00;5108936;28;20197;-63
2023/12/19 04:42:26;;;;;;;1.17;0.73;;;;;;;3.60;100.00;100247.28;5109035;28;20677;-63
2023/12/19 04:44:53;;;;;;;1.50;0.70;;;;;;;3.68;100.00;100242.88;5109143;28;20200;-63
2023/12/19 04:47:19;;;;;;;0.37;0.37;;;;;;;3.67;100.00;100240.41;5108873;28;20595;-63
2023/12/19 04:49:46;;;;;;;0.50;0.50;;;;;;;3.62;100.00;100225.34;5109114;28;20205;-63
2023/12/19 04:52:13;;;;;;;0.60;0.60;;;;;;;3.61;100.00;100223.69;5108879;28;20586;-63
2023/12/19 04:54:40;;;;;;;0.83;0.77;;;;;;;3.60;100.00;100214.41;5109020;28;20205;-63
2023/12/19 04:57:07;;;;;;;0.60;0.50;;;;;;;3.50;100.00;100213.84;5108220;28;20204;-63
2023/12/19 04:59:35;;;;;;;1.80;0.97;;;;;;;3.48;100.00;100209.69;5108655;28;20193;-63
2023/12/19 05:02:01;;;;;;;0.47;0.43;;;;;;;3.52;100.00;100211.25;5109011;28;20221;-63
2023/12/19 05:04:28;;;;;;;0.83;0.83;;;;;;;3.51;100.00;100214.66;5108603;28;20197;-63
2023/12/19 05:06:55;;;;;;;0.60;0.60;;;;;;;3.49;100.00;100222.28;5109271;28;20697;-63
2023/12/19 05:09:22;;;;;;;0.30;0.30;;;;;;;3.50;100.00;100225.66;5108754;28;20212;-63
2023/12/19 05:11:49;;;;;;;0.87;0.60;;;;;;;3.48;100.00;100224.84;5108552;28;20228;-63
2023/12/19 05:14:15;;;;;;;1.27;0.73;;;;;;;3.48;100.00;100219.78;5108856;28;20210;-63
2023/12/19 05:16:44;;;;;;;0.47;0.47;;;;;;;3.49;100.00;100232.41;5108945;28;20658;-62
2023/12/19 05:19:10;;;;;;;0.53;0.53;;;;;;;3.48;100.00;100224.84;5108771;28;20323;-63
2023/12/19 05:21:38;;;;;;;0.60;0.60;;;;;;;3.47;100.00;100228.25;5108858;28;20198;-63
2023/12/19 05:24:05;;;;;;;0.40;0.40;;;;;;;3.44;100.00;100223.28;5108542;28;20667;-63
2023/12/19 05:26:32;;;;;;;2.83;0.57;;;;;;;3.44;100.00;100218.22;5108629;28;20198;-63
2023/12/19 05:28:59;;;;;;;1.07;0.90;;;;;;;3.45;100.00;100224.94;5108832;28;20220;-63
2023/12/19 05:31:26;;;;;;;1.73;0.47;;;;;;;3.38;100.00;100214.16;5108485;28;20233;-63
2023/12/19 05:33:54;;;;;;;0.70;0.70;;;;;;;3.31;100.00;100223.56;5107997;28;20205;-63
2023/12/19 05:36:21;;;;;;;0.37;0.37;;;;;;;3.29;100.00;100227.00;5108096;28;20194;-63
2023/12/19 05:38:48;;;;;;;0.30;0.30;;;;;;;3.28;100.00;100223.63;5107748;28;20194;-62
2023/12/19 05:41:16;;;;;;;0.33;0.33;;;;;;;3.25;100.00;100228.75;5108520;28;20231;-62
2023/12/19 05:43:43;;;;;;;0.57;0.40;;;;;;;3.24;100.00;100231.34;5108689;28;20194;-62
2023/12/19 05:46:10;;;;;;;0.50;0.50;;;;;;;3.24;100.00;100237.22;5108394;28;20727;-62
2023/12/19 05:48:37;;;;;;;1.37;0.77;;;;;;;3.23;100.00;100240.63;5108334;28;20201;-62
2023/12/19 05:51:05;;;;;;;1.27;0.47;;;;;;;3.28;100.00;100243.84;5108206;28;20224;-62
2023/12/19 05:53:32;;;;;;;0.37;0.37;;;;;;;3.34;100.00;100233.59;5108150;28;20201;-63
2023/12/19 05:55:59;;;;;;;0.43;0.43;;;;;;;3.43;100.00;100236.75;5108228;28;20610;-63
2023/12/19 05:58:25;;;;;;;0.30;0.30;;;;;;;3.50;100.00;100233.22;5108374;28;20197;-63
2023/12/19 06:00:55;;;;;;;0.23;0.23;;;;;;;3.61;100.00;100236.31;5108476;28;20693;-63
2023/12/19 06:03:22;;;;;;;0.40;0.40;;;;;;;3.70;100.00;100231.03;5108443;28;20261;-62
2023/12/19 06:05:49;;;;;;;0.20;0.20;;;;;;;3.76;100.00;100235.09;5108311;28;20674;-62
2023/12/19 06:08:20;;;;;;;0.67;0.67;;;;;;;3.81;100.00;100228.22;5108667;28;20205;-62
2023/12/19 06:10:47;;;;;;;0.50;0.50;;;;;;;3.85;100.00;100238.22;5111808;28;20257;-62
2023/12/19 06:13:13;;;;;;;0.87;0.87;;;;;;;3.94;100.00;100236.31;5111967;28;20205;-62
2023/12/19 06:15:40;;;;;;;0.77;0.60;;;;;;;4.02;100.00;100225.13;5111739;28;20570;-62
2023/12/19 06:18:07;;;;;;;0.40;0.40;;;;;;;4.08;100.00;100231.72;5111792;28;20220;-62
2023/12/19 06:20:34;;;;;;;0.60;0.60;;;;;;;4.18;100.00;100238.19;5111638;28;20197;-63
2023/12/19 06:23:01;;;;;;;1.03;0.57;;;;;;;4.26;100.00;100235.44;5111855;28;20216;-62
2023/12/19 06:25:31;;;;;;;0.20;0.20;;;;;;;4.33;100.00;100236.91;5111534;28;20205;-63
2023/12/19 06:27:58;;;;;;;1.10;0.50;;;;;;;4.41;100.00;100239.25;5111806;28;20217;-63
2023/12/19 06:30:25;;;;;;;1.30;0.73;;;;;;;4.39;100.00;100235.91;5111816;28;20208;-62
2023/12/19 06:32:52;;;;;;;0.57;0.47;;;;;;;4.44;100.00;100234.09;5111386;28;20237;-63
2023/12/19 06:35:18;;;;;;;1.00;1.00;;;;;;;4.48;100.00;100231.44;5111362;28;20228;-62
2023/12/19 06:37:45;;;;;;;1.03;0.70;;;;;;;4.53;100.00;100233.81;5111664;28;20205;-63
2023/12/19 06:40:13;;;;;;;0.53;0.53;;;;;;;4.63;100.00;100232.69;5111147;28;20225;-63
2023/12/19 06:42:41;;;;;;;0.47;0.47;;;;;;;4.74;100.00;100224.75;5111209;28;20213;-63
2023/12/19 06:45:09;;;;;;;0.40;0.40;;;;;;;4.85;100.00;100226.97;5111284;28;20193;-63
2023/12/19 06:47:36;;;;;;;0.50;0.50;;;;;;;4.98;100.00;100225.75;5111328;28;20201;-63
2023/12/19 06:50:04;;;;;;;0.60;0.60;;;;;;;5.08;100.00;100222.03;5111329;28;20198;-63
2023/12/19 06:52:31;;;;;;;0.40;0.40;;;;;;;5.28;100.00;100226.47;5110937;28;20237;-63
2023/12/19 06:54:57;;;;;;;0.87;0.50;;;;;;;5.43;100.00;100227.66;5111230;28;20228;-63
2023/12/19 06:57:25;;;;;;;1.20;0.70;;;;;;;5.60;100.00;100227.94;5111094;28;20204;-63
2023/12/19 06:59:53;;;;;;;0.47;0.47;;;;;;;5.86;100.00;100231.31;5110980;28;20229;-62
2023/12/19 07:02:20;;;;;;;1.03;0.90;;;;;;;6.17;100.00;100230.25;5110919;28;20280;-62
2023/12/19 07:04:46;;;;;;;0.90;0.50;;;;;;;6.42;99.80;100228.50;5110951;28;20197;-63
2023/12/19 07:07:13;;;;;;;1.30;0.87;;;;;;;6.66;98.54;100223.38;5110575;28;20228;-63
2023/12/19 07:09:40;;;;;;;0.63;0.60;;;;;;;6.89;96.60;100230.94;5110975;28;20205;-63
2023/12/19 07:12:07;;;;;;;2.27;1.00;;;;;;;7.02;95.33;100221.97;5110708;28;20233;-63
2023/12/19 07:14:34;;;;;;;0.73;0.63;;;;;;;7.20;94.06;100229.75;5110725;28;20205;-63
2023/12/19 07:17:02;;;;;;;1.17;1.07;;;;;;;7.30;93.11;100240.38;5110727;28;20229;-63
2023/12/19 07:19:29;;;;;;;1.43;1.10;;;;;;;7.46;92.91;100241.44;5110057;28;20322;-63
2023/12/19 07:21:56;;;;;;;3.23;1.43;;;;;;;7.62;91.73;100241.59;5110896;28;20572;-63
2023/12/19 07:24:23;;;;;;;1.33;0.90;;;;;;;7.66;90.12;100245.69;5110576;28;20225;-63
2023/12/19 07:26:50;;;;;;;0.87;0.60;;;;;;;7.82;89.51;100254.34;5110643;28;20474;-63
2023/12/19 07:29:17;;;;;;;1.10;0.90;;;;;;;7.96;88.44;100258.03;5110319;28;20208;-63
2023/12/19 07:31:43;;;;;;;1.53;0.90;;;;;;;8.05;87.80;100255.91;5110622;27;20229;-62
2023/12/19 07:34:12;;;;;;;0.70;0.63;;;;;;;8.18;86.07;100258.75;5110103;28;20201;-62
2023/12/19 07:36:38;;;;;;;1.37;0.80;;;;;;;8.24;85.23;100266.13;5110287;28;20201;-63
2023/12/19 07:39:05;;;;;;;1.17;0.77;;;;;;;8.16;84.99;100260.53;5110482;28;20201;-62
2023/12/19 07:41:33;;;;;;;1.27;1.17;;;;;;;8.14;84.69;100268.25;5109857;28;20209;-63
2023/12/19 07:44:01;;;;;;;1.73;1.33;;;;;;;8.20;84.72;100271.41;5110173;28;20194;-63
2023/12/19 07:46:28;;;;;;;2.33;1.30;;;;;;;8.24;84.71;100265.31;5109937;28;20228;-62
2023/12/19 07:48:55;;;;;;;2.40;1.53;;;;;;;8.22;85.19;100252.63;5109910;28;20635;-63
2023/12/19 07:51:24;;;;;;;1.17;1.07;;;;;;;8.22;84.94;100251.81;5110324;28;20197;-63
2023/12/19 07:53:52;;;;;;;1.20;1.10;;;;;;;8.24;85.70;100255.94;5109935;28;20544;-63
2023/12/19 07:56:19;;;;;;;3.00;0.90;;;;;;;8.27;85.27;100253.25;5110124;28;20212;-63
2023/12/19 07:58:46;;;;;;;2.10;1.00;;;;;;;8.38;85.80;100253.66;5109990;28;20205;-63
2023/12/19 08:01:13;;;;;;;2.53;1.27;;;;;;;8.41;84.47;100251.84;5109483;27;20221;-63
2023/12/19 08:03:42;;;;;;;1.17;1.00;;;;;;;8.41;83.41;100251.84;5109568;28;20209;-63
2023/12/19 08:06:09;;;;;;;0.87;0.87;;;;;;;8.64;83.95;100251.66;5109563;28;20197;-63
2023/12/19 08:08:37;;;;;;;1.77;1.20;;;;;;;8.62;82.23;100258.53;5109808;28;20201;-63
2023/12/19 08:11:05;;;;;;;1.60;1.17;;;;;;;8.90;83.47;100254.72;5109463;28;20197;-63
2023/12/19 08:13:34;;;;;;;8.77;1.30;;;;;;;9.04;81.00;100262.53;5109569;28;20236;-62
2023/12/19 08:16:01;;;;;;;3.90;1.30;;;;;;;9.07;80.62;100262.41;5109988;28;20709;-62
2023/12/19 08:18:28;;;;;;;0.80;0.67;;;;;;;9.07;79.31;100259.84;5109332;28;20202;-62
2023/12/19 08:20:55;;;;;;;0.90;0.90;;;;;;;9.14;81.12;100265.50;5109554;28;20197;-62
2023/12/19 08:23:22;;;;;;;1.57;1.07;;;;;;;9.26;80.22;100263.19;5109262;28;20588;-63
2023/12/19 08:25:50;;;;;;;2.10;1.53;;;;;;;9.27;81.06;100264.81;5109799;28;20228;-63
2023/12/19 08:28:17;;;;;;;1.83;1.30;;;;;;;9.49;80.91;100256.16;5109491;28;20213;-63
2023/12/19 08:30:44;;;;;;;2.60;1.50;;;;;;;9.51;79.42;100246.66;5109145;27;20212;-63
2023/12/19 08:33:11;;;;;;;1.50;1.10;;;;;;;9.55;78.61;100253.28;5108824;28;20229;-63
2023/12/19 08:35:37;;;;;;;1.70;1.17;;;;;;;9.62;77.96;100243.59;5109147;28;20201;-63
2023/12/19 08:38:04;;;;;;;1.27;1.17;;;;;;;9.69;77.39;100240.66;5109330;28;20201;-63
2023/12/19 08:40:31;;;;;;;1.10;0.90;;;;;;;9.73;78.82;100237.03;5108947;28;20232;-62
2023/12/19 08:42:59;;;;;;;1.73;1.00;;;;;;;9.92;77.91;100225.91;5108906;28;20197;-63
2023/12/19 08:45:27;;;;;;;3.73;1.33;;;;;;;9.88;77.23;100232.88;5109128;28;20198;-63
2023/12/19 08:47:54;;;;;;;1.17;0.87;;;;;;;9.95;76.64;100230.88;5109443;28;20224;-63
2023/12/19 08:50:21;;;;;;;1.70;1.30;;;;;;;9.90;75.63;100227.72;5108153;28;20197;-62
2023/12/19 08:52:48;;;;;;;2.07;1.17;;;;;;;10.02;76.64;100232.19;5107698;28;20233;-63
2023/12/19 08:55:14;;;;;;;0.70;0.70;;;;;;;10.11;76.03;100229.16;5108135;28;20201;-63
2023/12/19 08:57:42;;;;;;;0.63;0.63;;;;;;;10.18;75.15;100227.94;5109242;28;20197;-63
2023/12/19 09:00:16;;;;;;;1.17;1.07;;;;;;;10.32;77.02;100221.31;5108951;28;20208;-63
2023/12/19 09:02:43;;;;;;;1.57;1.10;;;;;;;10.37;77.44;100219.34;5108722;28;20189;-63
2023/12/19 09:05:11;;;;;;;0.97;0.90;;;;;;;10.50;76.52;100212.66;5109022;28;20252;-63
2023/12/19 09:07:38;;;;;;;2.23;1.30;;;;;;;10.86;76.38;100211.56;5109061;28;20530;-63
2023/12/19 09:10:06;;;;;;;3.93;1.67;;;;;;;10.91;75.12;100209.56;5108596;28;20686;-63
2023/12/19 09:12:33;;;;;;;2.17;1.30;;;;;;;10.81;74.23;100205.88;5108636;28;20229;-62
2023/12/19 09:15:00;;;;;;;1.20;1.10;;;;;;;10.74;75.60;100194.34;5108621;28;20208;-62
2023/12/19 09:17:28;;;;;;;2.20;1.30;;;;;;;10.36;77.95;100184.47;5108818;28;20197;-62
2023/12/19 09:19:55;;;;;;;3.07;1.37;;;;;;;10.76;79.58;100177.16;5108918;28;20193;-63
2023/12/19 09:22:22;;;;;;;3.10;1.50;;;;;;;11.10;75.40;100181.19;5108643;28;20686;-63
2023/12/19 09:24:49;;;;;;;8.93;3.33;;;;;;;11.10;74.76;100171.78;5108609;28;20662;-63
2023/12/19 09:27:16;;;;;;;3.13;2.10;;;;;;;11.49;75.12;100183.22;5108664;28;20205;-63
2023/12/19 09:29:43;;;;;;;6.60;2.53;;;;;;;11.73;72.60;100175.00;5108490;28;20704;-63
2023/12/19 09:32:12;;;;;;;1.80;1.10;;;;;;;12.10;69.41;100172.78;5108636;28;20276;-63
2023/12/19 09:34:40;;;;;;;2.90;1.40;;;;;;;12.26;68.33;100163.25;5108419;28;20674;-62
2023/12/19 09:37:07;;;;;;;3.13;1.50;;;;;;;13.02;67.76;100167.00;5108493;28;20234;-62
2023/12/19 09:39:33;;;;;;;9.53;3.10;;;;;;;13.30;66.37;100164.28;5108698;28;20286;-62
2023/12/19 09:42:01;;;;;;;8.73;4.00;;;;;;;13.50;65.69;100151.88;5108610;28;20215;-62
2023/12/19 09:44:28;;;;;;;5.70;3.53;;;;;;;13.54;65.60;100158.44;5112269;28;20225;-62
2023/12/19 09:46:55;;;;;;;6.50;2.77;;;;;;;13.80;63.06;100147.22;5112782;28;20193;-63
2023/12/19 09:49:23;;;;;;;6.63;3.13;;;;;;;14.01;60.82;100144.06;5112302;28;20201;-63
2023/12/19 09:51:53;;;;;;;17.30;8.07;;;;;;;13.59;60.92;100146.13;5112415;28;20204;-63
2023/12/19 09:54:21;;;;;;;6.60;2.70;;;;;;;13.85;62.38;100146.09;5112193;27;20743;-63
2023/12/19 09:56:48;;;;;;;4.50;2.70;;;;;;;14.00;60.20;100150.16;5112226;28;20737;-63
2023/12/19 09:59:17;;;;;;;26.27;8.27;;;;;;;14.10;60.81;100148.56;5112591;28;20206;-63
2023/12/19 10:01:45;;;;;;;21.73;8.43;;;;;;;13.90;59.92;100151.72;5111938;28;20628;-63
2023/12/19 10:04:14;;;;;;;16.07;5.17;;;;;;;14.32;60.95;100154.81;5112090;28;20205;-63
2023/12/19 10:06:43;;;;;;;13.50;5.00;;;;;;;14.71;59.44;100162.25;5112511;28;20200;-63
2023/12/19 10:09:15;;;;;;;5.33;2.83;;;;;;;14.65;59.20;100152.41;5112178;28;20228;-63
2023/12/19 10:11:43;;;;;;;4.23;2.07;;;;;;;14.36;59.64;100156.22;5111973;28;20202;-62
2023/12/19 10:14:11;;;;;;;9.30;4.17;;;;;;;14.19;56.88;100155.63;5111582;28;20709;-62
2023/12/19 10:16:40;;;;;;;17.70;4.83;;;;;;;14.47;57.20;100145.97;5111619;28;20787;-62
2023/12/19 10:19:08;;;;;;;13.50;5.63;;;;;;;14.64;57.88;100140.47;5111950;28;20282;-62
2023/12/19 10:21:36;;;;;;;15.33;5.20;;;;;;;14.54;56.71;100129.19;5111687;28;20194;-63
2023/12/19 10:24:11;;;;;;;17.07;6.30;;;;;;;14.41;55.08;100133.56;5111549;28;20470;-63
2023/12/19 10:26:38;;;;;;;21.07;7.70;;;;;;;14.86;57.28;100128.59;5111434;28;20816;-62
2023/12/19 10:29:06;;;;;;;16.67;6.03;;;;;;;15.30;53.32;100127.91;5111402;28;20233;-62
2023/12/19 10:31:34;;;;;;;16.37;7.13;;;;;;;15.56;52.48;100133.66;5111489;27;20200;-62
2023/12/19 10:34:01;;;;;;;12.80;4.70;;;;;;;15.33;52.18;100131.97;5111399;28;20228;-62
2023/12/19 10:36:29;;;;;;;4.60;2.67;;;;;;;15.44;52.34;100124.25;5111830;28;20193;-62
2023/12/19 10:38:57;;;;;;;17.17;8.23;;;;;;;15.63;51.89;100116.78;5111460;28;20216;-62
2023/12/19 10:41:27;;;;;;;50.90;17.13;;;;;;;14.95;52.62;100112.47;5111104;28;20216;-63
2023/12/19 10:43:56;;;;;;;28.17;11.10;;;;;;;15.11;52.81;100107.84;5111195;28;20212;-63
2023/12/19 10:46:25;;;;;;;29.70;11.60;;;;;;;15.22;53.71;100096.75;5111227;28;20218;-63
2023/12/19 10:48:54;;;;;;;24.50;8.80;;;;;;;14.92;53.40;100092.09;5111284;28;20204;-63
2023/12/19 10:51:32;;;;;;;9.07;3.00;;;;;;;15.11;51.93;100087.22;5111387;28;20197;-63
2023/12/19 10:54:08;;;;;;;37.50;13.87;;;;;;;15.19;54.12;100089.25;5110304;28;20253;-63
2023/12/19 10:56:54;;;;;;;12.93;6.47;;;;;;;15.49;54.35;100080.91;5110841;28;20669;-63
2023/12/19 10:59:30;;;;;;;7.13;2.80;;;;;;;15.80;54.53;100079.41;5111206;28;20223;-63
2023/12/19 11:02:02;;;;;;;4.93;2.70;;;;;;;15.27;53.76;100068.03;5110870;28;20755;-63
2023/12/19 11:04:32;;;;;;;9.77;3.90;;;;;;;14.86;53.36;100062.47;5110927;28;20205;-63
2023/12/19 11:07:04;;;;;;;15.93;5.70;;;;;;;14.43;52.68;100064.81;5111189;28;20190;-63
2023/12/19 11:09:34;;;;;;;6.50;3.07;;;;;;;14.57;54.36;100056.09;5111136;28;20194;-63
2023/12/19 11:12:05;;;;;;;11.23;4.77;;;;;;;14.77;54.82;100060.59;5110658;28;20200;-63
2023/12/19 11:14:32;;;;;;;5.13;2.40;;;;;;;14.71;53.27;100064.44;5110702;28;20223;-62
2023/12/19 11:17:08;;;;;;;5.40;2.10;;;;;;;14.68;53.85;100053.56;5110569;28;20216;-63
2023/12/19 11:19:45;;;;;;;8.70;4.17;;;;;;;14.77;55.48;100052.06;5110355;28;20247;-63
2023/12/19 11:22:20;;;;;;;23.63;5.83;;;;;;;14.40;55.25;100040.13;5110722;28;20241;-63
2023/12/19 11:24:56;;;;;;;19.00;7.23;;;;;;;14.59;56.00;100039.63;5110645;28;20625;-62
2023/12/19 11:27:32;;;;;;;23.73;9.03;;;;;;;14.91;54.94;100033.81;5110570;28;20689;-63